sensor_id;sensor_type;location;lat;lon;timestamp;P1;durP1;ratioP1;P2;durP2;ratioP2
11646;SDS011;5880;52.342;9.662;2023-04-25T00:01:28;4.83;;;3.03;;
11646;SDS011;5880;52.342;9.662;2023-04-25T00:03:54;7.63;;;3.07;;
11646;SDS011;5880;52.342;9.662;2023-04-25T00:06:19;6.33;;;3.20;;
11646;SDS011;5880;52.342;9.662;2023-04-25T00:08:45;4.17;;;3.10;;
11646;SDS011;5880;52.342;9.662;2023-04-25T00:11:11;5.23;;;2.90;;
11646;SDS011;5880;52.342;9.662;2023-04-25T00:13:36;6.03;;;3.10;;
11646;SDS011;5880;52.342;9.662;2023-04-25T00:16:02;5.43;;;3.33;;
11646;SDS011;5880;52.342;9.662;2023-04-25T00:18:29;4.57;;;3.07;;
11646;SDS011;5880;52.342;9.662;2023-04-25T00:20:54;4.97;;;3.00;;
11646;SDS011;5880;52.342;9.662;2023-04-25T00:23:21;4.10;;;2.87;;
11646;SDS011;5880;52.342;9.662;2023-04-25T00:25:47;5.47;;;2.50;;
11646;SDS011;5880;52.342;9.662;2023-04-25T00:28:14;4.00;;;2.70;;
11646;SDS011;5880;52.342;9.662;2023-04-25T00:30:43;7.67;;;3.03;;
11646;SDS011;5880;52.342;9.662;2023-04-25T00:33:09;6.53;;;3.10;;
11646;SDS011;5880;52.342;9.662;2023-04-25T00:35:35;6.07;;;3.00;;
11646;SDS011;5880;52.342;9.662;2023-04-25T00:38:01;8.37;;;3.33;;
11646;SDS011;5880;52.342;9.662;2023-04-25T00:40:27;5.47;;;2.87;;
11646;SDS011;5880;52.342;9.662;2023-04-25T00:42:53;7.23;;;3.27;;
11646;SDS011;5880;52.342;9.662;2023-04-25T00:45:20;3.20;;;2.70;;
11646;SDS011;5880;52.342;9.662;2023-04-25T00:47:46;5.30;;;3.17;;
11646;SDS011;5880;52.342;9.662;2023-04-25T00:50:12;5.60;;;3.23;;
11646;SDS011;5880;52.342;9.662;2023-04-25T00:52:40;7.33;;;3.27;;
11646;SDS011;5880;52.342;9.662;2023-04-25T00:55:10;7.57;;;3.17;;
11646;SDS011;5880;52.342;9.662;2023-04-25T00:57:37;7.00;;;3.57;;
11646;SDS011;5880;52.342;9.662;2023-04-25T01:00:04;5.20;;;3.43;;
11646;SDS011;5880;52.342;9.662;2023-04-25T01:02:31;7.03;;;3.57;;
11646;SDS011;5880;52.342;9.662;2023-04-25T01:04:59;4.43;;;3.20;;
11646;SDS011;5880;52.342;9.662;2023-04-25T01:07:25;6.57;;;4.13;;
11646;SDS011;5880;52.342;9.662;2023-04-25T01:09:51;7.60;;;3.40;;
11646;SDS011;5880;52.342;9.662;2023-04-25T01:12:17;5.40;;;3.63;;
11646;SDS011;5880;52.342;9.662;2023-04-25T01:14:43;6.93;;;3.53;;
11646;SDS011;5880;52.342;9.662;2023-04-25T01:17:12;6.27;;;3.70;;
11646;SDS011;5880;52.342;9.662;2023-04-25T01:19:39;6.13;;;3.33;;
11646;SDS011;5880;52.342;9.662;2023-04-25T01:22:06;6.07;;;3.90;;
11646;SDS011;5880;52.342;9.662;2023-04-25T01:24:32;5.73;;;3.60;;
11646;SDS011;5880;52.342;9.662;2023-04-25T01:26:58;4.93;;;3.57;;
11646;SDS011;5880;52.342;9.662;2023-04-25T01:29:27;6.37;;;3.77;;
11646;SDS011;5880;52.342;9.662;2023-04-25T01:31:53;6.43;;;3.87;;
11646;SDS011;5880;52.342;9.662;2023-04-25T01:34:19;6.53;;;3.97;;
11646;SDS011;5880;52.342;9.662;2023-04-25T01:36:47;4.40;;;3.40;;
11646;SDS011;5880;52.342;9.662;2023-04-25T01:39:15;5.10;;;3.67;;
11646;SDS011;5880;52.342;9.662;2023-04-25T01:41:45;11.47;;;4.73;;
11646;SDS011;5880;52.342;9.662;2023-04-25T01:44:13;6.07;;;3.70;;
11646;SDS011;5880;52.342;9.662;2023-04-25T01:46:39;6.10;;;3.90;;
11646;SDS011;5880;52.342;9.662;2023-04-25T01:49:05;6.73;;;4.40;;
11646;SDS011;5880;52.342;9.662;2023-04-25T01:51:31;5.00;;;3.90;;
11646;SDS011;5880;52.342;9.662;2023-04-25T01:53:57;6.40;;;3.87;;
11646;SDS011;5880;52.342;9.662;2023-04-25T01:56:23;5.10;;;3.73;;
11646;SDS011;5880;52.342;9.662;2023-04-25T01:58:49;5.63;;;3.50;;
11646;SDS011;5880;52.342;9.662;2023-04-25T02:01:14;6.90;;;4.10;;
11646;SDS011;5880;52.342;9.662;2023-04-25T02:03:40;5.07;;;3.73;;
11646;SDS011;5880;52.342;9.662;2023-04-25T02:06:06;5.30;;;3.50;;
11646;SDS011;5880;52.342;9.662;2023-04-25T02:08:31;7.67;;;3.43;;
11646;SDS011;5880;52.342;9.662;2023-04-25T02:10:57;5.00;;;3.47;;
11646;SDS011;5880;52.342;9.662;2023-04-25T02:13:23;5.33;;;3.37;;
11646;SDS011;5880;52.342;9.662;2023-04-25T02:15:48;4.93;;;3.53;;
11646;SDS011;5880;52.342;9.662;2023-04-25T02:18:14;5.33;;;3.20;;
11646;SDS011;5880;52.342;9.662;2023-04-25T02:20:41;6.60;;;3.40;;
11646;SDS011;5880;52.342;9.662;2023-04-25T02:23:07;4.63;;;3.53;;
11646;SDS011;5880;52.342;9.662;2023-04-25T02:25:33;4.50;;;3.33;;
11646;SDS011;5880;52.342;9.662;2023-04-25T02:27:59;5.10;;;3.40;;
11646;SDS011;5880;52.342;9.662;2023-04-25T02:30:25;6.47;;;2.97;;
11646;SDS011;5880;52.342;9.662;2023-04-25T02:32:50;4.40;;;2.80;;
11646;SDS011;5880;52.342;9.662;2023-04-25T02:35:16;6.53;;;2.67;;
11646;SDS011;5880;52.342;9.662;2023-04-25T02:37:42;6.07;;;3.00;;
11646;SDS011;5880;52.342;9.662;2023-04-25T02:40:08;4.50;;;2.40;;
11646;SDS011;5880;52.342;9.662;2023-04-25T02:42:35;6.80;;;2.70;;
11646;SDS011;5880;52.342;9.662;2023-04-25T02:45:01;6.93;;;2.50;;
11646;SDS011;5880;52.342;9.662;2023-04-25T02:47:27;5.10;;;2.67;;
11646;SDS011;5880;52.342;9.662;2023-04-25T02:49:53;6.67;;;2.87;;
11646;SDS011;5880;52.342;9.662;2023-04-25T02:52:19;4.30;;;2.27;;
11646;SDS011;5880;52.342;9.662;2023-04-25T02:54:46;5.63;;;2.20;;
11646;SDS011;5880;52.342;9.662;2023-04-25T02:57:11;6.97;;;2.77;;
11646;SDS011;5880;52.342;9.662;2023-04-25T02:59:37;5.43;;;2.57;;
11646;SDS011;5880;52.342;9.662;2023-04-25T03:02:03;4.87;;;2.50;;
11646;SDS011;5880;52.342;9.662;2023-04-25T03:04:28;8.40;;;2.40;;
11646;SDS011;5880;52.342;9.662;2023-04-25T03:06:54;5.03;;;2.60;;
11646;SDS011;5880;52.342;9.662;2023-04-25T03:09:20;4.90;;;2.60;;
11646;SDS011;5880;52.342;9.662;2023-04-25T03:11:45;7.10;;;2.97;;
11646;SDS011;5880;52.342;9.662;2023-04-25T03:14:12;8.07;;;2.83;;
11646;SDS011;5880;52.342;9.662;2023-04-25T03:16:38;4.60;;;2.73;;
11646;SDS011;5880;52.342;9.662;2023-04-25T03:19:05;3.70;;;2.17;;
11646;SDS011;5880;52.342;9.662;2023-04-25T03:21:31;6.30;;;2.57;;
11646;SDS011;5880;52.342;9.662;2023-04-25T03:23:59;6.53;;;3.30;;
11646;SDS011;5880;52.342;9.662;2023-04-25T03:26:26;6.13;;;3.00;;
11646;SDS011;5880;52.342;9.662;2023-04-25T03:28:52;6.70;;;2.57;;
11646;SDS011;5880;52.342;9.662;2023-04-25T03:31:18;6.90;;;2.90;;
11646;SDS011;5880;52.342;9.662;2023-04-25T03:33:43;6.80;;;2.80;;
11646;SDS011;5880;52.342;9.662;2023-04-25T03:36:09;6.63;;;2.53;;
11646;SDS011;5880;52.342;9.662;2023-04-25T03:38:35;4.17;;;2.57;;
11646;SDS011;5880;52.342;9.662;2023-04-25T03:41:01;5.73;;;2.70;;
11646;SDS011;5880;52.342;9.662;2023-04-25T03:43:27;6.70;;;3.27;;
11646;SDS011;5880;52.342;9.662;2023-04-25T03:45:53;5.40;;;2.67;;
11646;SDS011;5880;52.342;9.662;2023-04-25T03:48:19;3.90;;;2.67;;
11646;SDS011;5880;52.342;9.662;2023-04-25T03:50:49;6.93;;;2.87;;
11646;SDS011;5880;52.342;9.662;2023-04-25T03:53:15;11.47;;;3.20;;
11646;SDS011;5880;52.342;9.662;2023-04-25T03:55:40;10.60;;;2.80;;
11646;SDS011;5880;52.342;9.662;2023-04-25T03:58:06;8.10;;;2.70;;
11646;SDS011;5880;52.342;9.662;2023-04-25T04:00:33;5.17;;;2.53;;
11646;SDS011;5880;52.342;9.662;2023-04-25T04:02:59;7.00;;;3.13;;
11646;SDS011;5880;52.342;9.662;2023-04-25T04:05:24;6.60;;;3.23;;
11646;SDS011;5880;52.342;9.662;2023-04-25T04:07:50;8.27;;;2.87;;
11646;SDS011;5880;52.342;9.662;2023-04-25T04:10:16;7.73;;;2.90;;
11646;SDS011;5880;52.342;9.662;2023-04-25T04:12:41;9.37;;;3.00;;
11646;SDS011;5880;52.342;9.662;2023-04-25T04:15:07;8.17;;;2.90;;
11646;SDS011;5880;52.342;9.662;2023-04-25T04:17:34;7.90;;;3.10;;
11646;SDS011;5880;52.342;9.662;2023-04-25T04:20:00;7.13;;;3.10;;
11646;SDS011;5880;52.342;9.662;2023-04-25T04:22:26;10.77;;;2.80;;
11646;SDS011;5880;52.342;9.662;2023-04-25T04:24:52;5.93;;;2.63;;
11646;SDS011;5880;52.342;9.662;2023-04-25T04:27:17;8.07;;;2.73;;
11646;SDS011;5880;52.342;9.662;2023-04-25T04:29:44;5.73;;;2.60;;
11646;SDS011;5880;52.342;9.662;2023-04-25T04:32:11;8.17;;;2.70;;
11646;SDS011;5880;52.342;9.662;2023-04-25T04:34:38;8.80;;;2.87;;
11646;SDS011;5880;52.342;9.662;2023-04-25T04:37:04;7.57;;;2.97;;
11646;SDS011;5880;52.342;9.662;2023-04-25T04:39:31;5.33;;;2.70;;
11646;SDS011;5880;52.342;9.662;2023-04-25T04:42:01;8.83;;;2.87;;
11646;SDS011;5880;52.342;9.662;2023-04-25T04:44:28;8.70;;;3.00;;
11646;SDS011;5880;52.342;9.662;2023-04-25T04:46:57;5.40;;;2.80;;
11646;SDS011;5880;52.342;9.662;2023-04-25T04:49:23;8.67;;;3.13;;
11646;SDS011;5880;52.342;9.662;2023-04-25T04:51:49;14.63;;;2.90;;
11646;SDS011;5880;52.342;9.662;2023-04-25T04:54:15;9.93;;;2.90;;
11646;SDS011;5880;52.342;9.662;2023-04-25T04:56:40;6.70;;;2.70;;
11646;SDS011;5880;52.342;9.662;2023-04-25T04:59:06;6.37;;;2.83;;
11646;SDS011;5880;52.342;9.662;2023-04-25T05:01:33;6.23;;;3.03;;
11646;SDS011;5880;52.342;9.662;2023-04-25T05:04:00;9.37;;;2.83;;
11646;SDS011;5880;52.342;9.662;2023-04-25T05:06:27;9.50;;;3.13;;
11646;SDS011;5880;52.342;9.662;2023-04-25T05:08:56;6.67;;;2.70;;
11646;SDS011;5880;52.342;9.662;2023-04-25T05:11:23;8.63;;;2.80;;
11646;SDS011;5880;52.342;9.662;2023-04-25T05:13:51;7.93;;;2.83;;
11646;SDS011;5880;52.342;9.662;2023-04-25T05:16:17;5.80;;;2.70;;
11646;SDS011;5880;52.342;9.662;2023-04-25T05:18:43;10.33;;;3.30;;
11646;SDS011;5880;52.342;9.662;2023-04-25T05:21:09;7.40;;;2.83;;
11646;SDS011;5880;52.342;9.662;2023-04-25T05:23:35;8.57;;;2.77;;
11646;SDS011;5880;52.342;9.662;2023-04-25T05:26:01;13.00;;;3.37;;
11646;SDS011;5880;52.342;9.662;2023-04-25T05:28:26;9.97;;;3.03;;
11646;SDS011;5880;52.342;9.662;2023-04-25T05:30:52;7.73;;;2.70;;
11646;SDS011;5880;52.342;9.662;2023-04-25T05:33:18;6.37;;;2.80;;
11646;SDS011;5880;52.342;9.662;2023-04-25T05:35:44;8.20;;;2.77;;
11646;SDS011;5880;52.342;9.662;2023-04-25T05:38:10;8.97;;;2.53;;
11646;SDS011;5880;52.342;9.662;2023-04-25T05:40:35;9.37;;;3.17;;
11646;SDS011;5880;52.342;9.662;2023-04-25T05:43:01;10.77;;;2.90;;
11646;SDS011;5880;52.342;9.662;2023-04-25T05:45:27;10.83;;;3.43;;
11646;SDS011;5880;52.342;9.662;2023-04-25T05:47:53;11.50;;;2.90;;
11646;SDS011;5880;52.342;9.662;2023-04-25T05:50:18;8.33;;;2.53;;
11646;SDS011;5880;52.342;9.662;2023-04-25T05:52:44;9.27;;;2.77;;
11646;SDS011;5880;52.342;9.662;2023-04-25T05:55:09;8.30;;;3.00;;
11646;SDS011;5880;52.342;9.662;2023-04-25T05:57:35;7.10;;;2.73;;
11646;SDS011;5880;52.342;9.662;2023-04-25T06:00:01;6.23;;;2.60;;
11646;SDS011;5880;52.342;9.662;2023-04-25T06:02:28;8.80;;;2.60;;
11646;SDS011;5880;52.342;9.662;2023-04-25T06:04:53;7.20;;;2.43;;
11646;SDS011;5880;52.342;9.662;2023-04-25T06:07:19;6.43;;;2.90;;
11646;SDS011;5880;52.342;9.662;2023-04-25T06:09:45;6.27;;;2.67;;
11646;SDS011;5880;52.342;9.662;2023-04-25T06:12:11;9.57;;;2.83;;
11646;SDS011;5880;52.342;9.662;2023-04-25T06:14:36;9.90;;;3.03;;
11646;SDS011;5880;52.342;9.662;2023-04-25T06:17:03;8.10;;;2.60;;
11646;SDS011;5880;52.342;9.662;2023-04-25T06:19:33;10.30;;;3.33;;
11646;SDS011;5880;52.342;9.662;2023-04-25T06:22:00;4.57;;;2.30;;
11646;SDS011;5880;52.342;9.662;2023-04-25T06:24:27;7.73;;;2.50;;
11646;SDS011;5880;52.342;9.662;2023-04-25T06:26:53;10.70;;;3.03;;
11646;SDS011;5880;52.342;9.662;2023-04-25T06:29:19;6.93;;;2.87;;
11646;SDS011;5880;52.342;9.662;2023-04-25T06:31:45;6.70;;;2.67;;
11646;SDS011;5880;52.342;9.662;2023-04-25T06:34:10;4.47;;;2.50;;
11646;SDS011;5880;52.342;9.662;2023-04-25T06:36:36;10.60;;;3.00;;
11646;SDS011;5880;52.342;9.662;2023-04-25T06:39:02;6.63;;;2.77;;
11646;SDS011;5880;52.342;9.662;2023-04-25T06:41:27;8.23;;;2.40;;
11646;SDS011;5880;52.342;9.662;2023-04-25T06:43:53;7.40;;;2.70;;
11646;SDS011;5880;52.342;9.662;2023-04-25T06:46:19;10.50;;;3.23;;
11646;SDS011;5880;52.342;9.662;2023-04-25T06:48:45;7.50;;;2.60;;
11646;SDS011;5880;52.342;9.662;2023-04-25T06:51:10;8.55;;;2.70;;
11646;SDS011;5880;52.342;9.662;2023-04-25T06:53:38;7.25;;;2.47;;
11646;SDS011;5880;52.342;9.662;2023-04-25T06:56:04;9.35;;;2.78;;
11646;SDS011;5880;52.342;9.662;2023-04-25T06:58:30;5.25;;;2.58;;
11646;SDS011;5880;52.342;9.662;2023-04-25T07:00:56;9.68;;;2.70;;
11646;SDS011;5880;52.342;9.662;2023-04-25T07:03:22;5.68;;;2.40;;
11646;SDS011;5880;52.342;9.662;2023-04-25T07:05:48;7.35;;;2.50;;
11646;SDS011;5880;52.342;9.662;2023-04-25T07:08:15;5.95;;;2.38;;
11646;SDS011;5880;52.342;9.662;2023-04-25T07:10:40;7.60;;;2.70;;
11646;SDS011;5880;52.342;9.662;2023-04-25T07:13:06;6.40;;;2.10;;
11646;SDS011;5880;52.342;9.662;2023-04-25T07:15:32;7.83;;;2.60;;
11646;SDS011;5880;52.342;9.662;2023-04-25T07:17:58;7.33;;;2.67;;
11646;SDS011;5880;52.342;9.662;2023-04-25T07:20:24;6.17;;;2.37;;
11646;SDS011;5880;52.342;9.662;2023-04-25T07:22:50;6.60;;;2.47;;
11646;SDS011;5880;52.342;9.662;2023-04-25T07:25:16;6.07;;;2.33;;
11646;SDS011;5880;52.342;9.662;2023-04-25T07:27:42;4.37;;;2.07;;
11646;SDS011;5880;52.342;9.662;2023-04-25T07:30:09;4.10;;;2.07;;
11646;SDS011;5880;52.342;9.662;2023-04-25T07:32:35;9.30;;;2.40;;
11646;SDS011;5880;52.342;9.662;2023-04-25T07:35:00;6.37;;;2.20;;
11646;SDS011;5880;52.342;9.662;2023-04-25T07:37:26;3.40;;;1.83;;
11646;SDS011;5880;52.342;9.662;2023-04-25T07:39:52;7.40;;;2.30;;
11646;SDS011;5880;52.342;9.662;2023-04-25T07:42:18;5.03;;;1.97;;
11646;SDS011;5880;52.342;9.662;2023-04-25T07:44:43;5.50;;;1.90;;
11646;SDS011;5880;52.342;9.662;2023-04-25T07:47:09;4.83;;;1.57;;
11646;SDS011;5880;52.342;9.662;2023-04-25T07:49:36;4.90;;;1.97;;
11646;SDS011;5880;52.342;9.662;2023-04-25T07:52:02;4.50;;;1.93;;
11646;SDS011;5880;52.342;9.662;2023-04-25T07:54:31;5.67;;;1.87;;
11646;SDS011;5880;52.342;9.662;2023-04-25T07:56:57;4.90;;;1.67;;
11646;SDS011;5880;52.342;9.662;2023-04-25T07:59:23;4.23;;;1.67;;
11646;SDS011;5880;52.342;9.662;2023-04-25T08:01:49;3.70;;;1.83;;
11646;SDS011;5880;52.342;9.662;2023-04-25T08:04:15;5.37;;;1.90;;
11646;SDS011;5880;52.342;9.662;2023-04-25T08:06:41;5.00;;;1.50;;
11646;SDS011;5880;52.342;9.662;2023-04-25T08:09:07;5.03;;;1.90;;
11646;SDS011;5880;52.342;9.662;2023-04-25T08:11:34;5.80;;;2.60;;
11646;SDS011;5880;52.342;9.662;2023-04-25T08:14:02;3.43;;;1.87;;
11646;SDS011;5880;52.342;9.662;2023-04-25T08:16:28;4.63;;;1.90;;
11646;SDS011;5880;52.342;9.662;2023-04-25T08:18:53;5.67;;;2.10;;
11646;SDS011;5880;52.342;9.662;2023-04-25T08:21:19;5.90;;;1.97;;
11646;SDS011;5880;52.342;9.662;2023-04-25T08:23:45;2.53;;;1.50;;
11646;SDS011;5880;52.342;9.662;2023-04-25T08:26:11;4.33;;;1.90;;
11646;SDS011;5880;52.342;9.662;2023-04-25T08:28:37;3.90;;;1.70;;
11646;SDS011;5880;52.342;9.662;2023-04-25T08:31:03;4.80;;;1.70;;
11646;SDS011;5880;52.342;9.662;2023-04-25T08:33:29;5.33;;;1.93;;
11646;SDS011;5880;52.342;9.662;2023-04-25T08:35:55;3.37;;;1.57;;
11646;SDS011;5880;52.342;9.662;2023-04-25T08:38:20;5.00;;;1.60;;
11646;SDS011;5880;52.342;9.662;2023-04-25T08:40:48;5.03;;;1.80;;
11646;SDS011;5880;52.342;9.662;2023-04-25T08:43:19;3.70;;;1.53;;
11646;SDS011;5880;52.342;9.662;2023-04-25T08:45:45;2.77;;;1.50;;
11646;SDS011;5880;52.342;9.662;2023-04-25T08:48:13;6.60;;;1.90;;
11646;SDS011;5880;52.342;9.662;2023-04-25T08:50:44;4.87;;;1.70;;
11646;SDS011;5880;52.342;9.662;2023-04-25T08:53:16;4.07;;;1.57;;
11646;SDS011;5880;52.342;9.662;2023-04-25T08:55:47;3.00;;;1.37;;
11646;SDS011;5880;52.342;9.662;2023-04-25T08:58:15;2.93;;;1.60;;
11646;SDS011;5880;52.342;9.662;2023-04-25T09:00:42;5.90;;;1.80;;
11646;SDS011;5880;52.342;9.662;2023-04-25T09:03:08;3.40;;;1.40;;
11646;SDS011;5880;52.342;9.662;2023-04-25T09:05:35;3.73;;;1.50;;
11646;SDS011;5880;52.342;9.662;2023-04-25T09:08:01;3.60;;;2.00;;
11646;SDS011;5880;52.342;9.662;2023-04-25T09:10:27;4.50;;;1.67;;
11646;SDS011;5880;52.342;9.662;2023-04-25T09:13:03;4.40;;;1.73;;
11646;SDS011;5880;52.342;9.662;2023-04-25T09:15:48;2.57;;;1.27;;
11646;SDS011;5880;52.342;9.662;2023-04-25T09:18:25;3.30;;;1.40;;
11646;SDS011;5880;52.342;9.662;2023-04-25T09:20:53;4.50;;;1.90;;
11646;SDS011;5880;52.342;9.662;2023-04-25T09:23:30;4.63;;;1.73;;
11646;SDS011;5880;52.342;9.662;2023-04-25T09:26:03;4.40;;;1.60;;
11646;SDS011;5880;52.342;9.662;2023-04-25T09:28:32;5.63;;;1.40;;
11646;SDS011;5880;52.342;9.662;2023-04-25T09:30:57;3.77;;;1.60;;
11646;SDS011;5880;52.342;9.662;2023-04-25T09:33:27;3.10;;;1.30;;
11646;SDS011;5880;52.342;9.662;2023-04-25T09:36:01;3.23;;;1.33;;
11646;SDS011;5880;52.342;9.662;2023-04-25T09:38:42;2.50;;;1.37;;
11646;SDS011;5880;52.342;9.662;2023-04-25T09:41:10;2.93;;;1.33;;
11646;SDS011;5880;52.342;9.662;2023-04-25T09:43:36;2.30;;;1.30;;
11646;SDS011;5880;52.342;9.662;2023-04-25T09:46:09;2.23;;;1.30;;
11646;SDS011;5880;52.342;9.662;2023-04-25T09:48:36;3.57;;;1.40;;
11646;SDS011;5880;52.342;9.662;2023-04-25T09:53:28;2.60;;;1.30;;
11646;SDS011;5880;52.342;9.662;2023-04-25T09:55:54;1.53;;;1.30;;
11646;SDS011;5880;52.342;9.662;2023-04-25T09:58:21;2.10;;;1.07;;
11646;SDS011;5880;52.342;9.662;2023-04-25T10:00:50;3.17;;;1.30;;
11646;SDS011;5880;52.342;9.662;2023-04-25T10:03:17;3.27;;;1.63;;
11646;SDS011;5880;52.342;9.662;2023-04-25T10:05:45;4.10;;;1.40;;
11646;SDS011;5880;52.342;9.662;2023-04-25T10:08:14;1.50;;;1.20;;
11646;SDS011;5880;52.342;9.662;2023-04-25T10:10:41;1.90;;;1.27;;
11646;SDS011;5880;52.342;9.662;2023-04-25T10:13:08;4.10;;;1.40;;
11646;SDS011;5880;52.342;9.662;2023-04-25T10:15:34;3.90;;;1.40;;
11646;SDS011;5880;52.342;9.662;2023-04-25T10:18:03;2.13;;;1.20;;
11646;SDS011;5880;52.342;9.662;2023-04-25T10:20:31;3.40;;;1.37;;
11646;SDS011;5880;52.342;9.662;2023-04-25T10:22:58;2.57;;;1.23;;
11646;SDS011;5880;52.342;9.662;2023-04-25T10:25:38;3.17;;;1.30;;
11646;SDS011;5880;52.342;9.662;2023-04-25T10:28:05;3.73;;;1.50;;
11646;SDS011;5880;52.342;9.662;2023-04-25T10:30:30;1.87;;;1.37;;
11646;SDS011;5880;52.342;9.662;2023-04-25T10:32:56;4.13;;;1.63;;
11646;SDS011;5880;52.342;9.662;2023-04-25T10:35:25;2.70;;;1.17;;
11646;SDS011;5880;52.342;9.662;2023-04-25T10:38:04;3.10;;;1.30;;
11646;SDS011;5880;52.342;9.662;2023-04-25T10:40:35;4.23;;;1.27;;
11646;SDS011;5880;52.342;9.662;2023-04-25T10:46:00;3.70;;;1.50;;
11646;SDS011;5880;52.342;9.662;2023-04-25T10:48:26;3.07;;;1.63;;
11646;SDS011;5880;52.342;9.662;2023-04-25T10:51:09;2.80;;;1.30;;
11646;SDS011;5880;52.342;9.662;2023-04-25T10:53:40;3.90;;;1.43;;
11646;SDS011;5880;52.342;9.662;2023-04-25T10:59:05;3.07;;;1.40;;
11646;SDS011;5880;52.342;9.662;2023-04-25T11:01:42;3.23;;;1.70;;
11646;SDS011;5880;52.342;9.662;2023-04-25T11:04:23;4.17;;;1.47;;
11646;SDS011;5880;52.342;9.662;2023-04-25T11:09:40;3.53;;;1.43;;
11646;SDS011;5880;52.342;9.662;2023-04-25T11:12:07;3.57;;;1.40;;
11646;SDS011;5880;52.342;9.662;2023-04-25T11:14:35;2.77;;;1.50;;
11646;SDS011;5880;52.342;9.662;2023-04-25T11:17:01;2.67;;;1.60;;
11646;SDS011;5880;52.342;9.662;2023-04-25T11:19:29;3.83;;;1.53;;
11646;SDS011;5880;52.342;9.662;2023-04-25T11:21:56;2.40;;;1.70;;
11646;SDS011;5880;52.342;9.662;2023-04-25T11:24:29;2.03;;;1.27;;
11646;SDS011;5880;52.342;9.662;2023-04-25T11:26:57;3.30;;;1.90;;
11646;SDS011;5880;52.342;9.662;2023-04-25T11:29:27;2.57;;;1.60;;
11646;SDS011;5880;52.342;9.662;2023-04-25T11:31:54;4.87;;;1.63;;
11646;SDS011;5880;52.342;9.662;2023-04-25T11:34:25;4.03;;;1.50;;
11646;SDS011;5880;52.342;9.662;2023-04-25T11:36:51;2.50;;;1.40;;
11646;SDS011;5880;52.342;9.662;2023-04-25T11:39:18;3.77;;;1.50;;
11646;SDS011;5880;52.342;9.662;2023-04-25T11:41:45;3.90;;;1.50;;
11646;SDS011;5880;52.342;9.662;2023-04-25T11:44:11;3.27;;;1.37;;
11646;SDS011;5880;52.342;9.662;2023-04-25T11:46:40;5.10;;;1.77;;
11646;SDS011;5880;52.342;9.662;2023-04-25T11:49:07;2.97;;;1.40;;
11646;SDS011;5880;52.342;9.662;2023-04-25T11:51:39;2.33;;;1.30;;
11646;SDS011;5880;52.342;9.662;2023-04-25T11:54:05;2.70;;;1.50;;
11646;SDS011;5880;52.342;9.662;2023-04-25T11:56:32;4.43;;;1.40;;
11646;SDS011;5880;52.342;9.662;2023-04-25T11:58:59;3.17;;;1.30;;
11646;SDS011;5880;52.342;9.662;2023-04-25T12:03:58;3.90;;;1.67;;
11646;SDS011;5880;52.342;9.662;2023-04-25T12:06:38;3.00;;;1.30;;
11646;SDS011;5880;52.342;9.662;2023-04-25T12:09:10;1.30;;;1.20;;
11646;SDS011;5880;52.342;9.662;2023-04-25T12:11:41;2.67;;;1.20;;
11646;SDS011;5880;52.342;9.662;2023-04-25T12:14:12;3.80;;;1.40;;
11646;SDS011;5880;52.342;9.662;2023-04-25T12:16:55;2.30;;;1.40;;
11646;SDS011;5880;52.342;9.662;2023-04-25T12:19:25;2.37;;;1.07;;
11646;SDS011;5880;52.342;9.662;2023-04-25T12:21:58;1.97;;;0.90;;
11646;SDS011;5880;52.342;9.662;2023-04-25T12:24:28;1.77;;;1.00;;
11646;SDS011;5880;52.342;9.662;2023-04-25T12:29:28;1.33;;;1.00;;
11646;SDS011;5880;52.342;9.662;2023-04-25T12:31:56;2.17;;;0.90;;
11646;SDS011;5880;52.342;9.662;2023-04-25T12:34:23;2.27;;;1.00;;
11646;SDS011;5880;52.342;9.662;2023-04-25T12:36:50;1.87;;;1.20;;
11646;SDS011;5880;52.342;9.662;2023-04-25T12:39:17;1.80;;;0.90;;
11646;SDS011;5880;52.342;9.662;2023-04-25T12:41:48;1.67;;;1.10;;
11646;SDS011;5880;52.342;9.662;2023-04-25T12:44:15;2.30;;;0.93;;
11646;SDS011;5880;52.342;9.662;2023-04-25T12:46:42;2.77;;;1.00;;
11646;SDS011;5880;52.342;9.662;2023-04-25T12:49:08;1.90;;;0.80;;
11646;SDS011;5880;52.342;9.662;2023-04-25T12:51:34;1.37;;;0.70;;
11646;SDS011;5880;52.342;9.662;2023-04-25T12:54:02;0.97;;;0.60;;
11646;SDS011;5880;52.342;9.662;2023-04-25T12:56:30;1.23;;;0.80;;
11646;SDS011;5880;52.342;9.662;2023-04-25T12:58:56;1.17;;;0.70;;
11646;SDS011;5880;52.342;9.662;2023-04-25T13:01:23;1.97;;;0.90;;
11646;SDS011;5880;52.342;9.662;2023-04-25T13:03:51;1.33;;;0.87;;
11646;SDS011;5880;52.342;9.662;2023-04-25T13:06:18;1.40;;;0.73;;
11646;SDS011;5880;52.342;9.662;2023-04-25T13:08:45;1.33;;;0.80;;
11646;SDS011;5880;52.342;9.662;2023-04-25T13:11:11;1.53;;;0.70;;
11646;SDS011;5880;52.342;9.662;2023-04-25T13:13:37;1.93;;;1.13;;
11646;SDS011;5880;52.342;9.662;2023-04-25T13:16:05;3.60;;;1.20;;
11646;SDS011;5880;52.342;9.662;2023-04-25T13:18:31;1.57;;;1.00;;
11646;SDS011;5880;52.342;9.662;2023-04-25T13:20:58;2.67;;;1.20;;
11646;SDS011;5880;52.342;9.662;2023-04-25T13:23:25;3.10;;;1.20;;
11646;SDS011;5880;52.342;9.662;2023-04-25T13:25:53;2.73;;;1.03;;
11646;SDS011;5880;52.342;9.662;2023-04-25T13:28:21;1.73;;;1.00;;
11646;SDS011;5880;52.342;9.662;2023-04-25T13:30:47;1.47;;;1.23;;
11646;SDS011;5880;52.342;9.662;2023-04-25T13:33:13;1.30;;;1.00;;
11646;SDS011;5880;52.342;9.662;2023-04-25T13:35:40;1.00;;;0.90;;
11646;SDS011;5880;52.342;9.662;2023-04-25T13:38:06;2.07;;;1.40;;
11646;SDS011;5880;52.342;9.662;2023-04-25T13:40:33;2.27;;;0.90;;
11646;SDS011;5880;52.342;9.662;2023-04-25T13:43:00;1.47;;;0.90;;
11646;SDS011;5880;52.342;9.662;2023-04-25T13:45:26;2.43;;;1.23;;
11646;SDS011;5880;52.342;9.662;2023-04-25T13:47:52;1.50;;;1.00;;
11646;SDS011;5880;52.342;9.662;2023-04-25T13:50:18;2.30;;;1.20;;
11646;SDS011;5880;52.342;9.662;2023-04-25T13:52:43;4.17;;;1.20;;
11646;SDS011;5880;52.342;9.662;2023-04-25T13:55:09;3.93;;;1.20;;
11646;SDS011;5880;52.342;9.662;2023-04-25T13:57:35;1.27;;;1.10;;
11646;SDS011;5880;52.342;9.662;2023-04-25T14:00:02;2.93;;;1.20;;
11646;SDS011;5880;52.342;9.662;2023-04-25T14:02:33;2.17;;;1.00;;
11646;SDS011;5880;52.342;9.662;2023-04-25T14:05:02;1.73;;;1.00;;
11646;SDS011;5880;52.342;9.662;2023-04-25T14:07:29;3.13;;;1.10;;
11646;SDS011;5880;52.342;9.662;2023-04-25T14:09:55;2.80;;;0.90;;
11646;SDS011;5880;52.342;9.662;2023-04-25T14:12:24;2.00;;;1.00;;
11646;SDS011;5880;52.342;9.662;2023-04-25T14:14:50;2.43;;;1.00;;
11646;SDS011;5880;52.342;9.662;2023-04-25T14:17:16;1.90;;;1.10;;
11646;SDS011;5880;52.342;9.662;2023-04-25T14:19:41;1.17;;;0.97;;
11646;SDS011;5880;52.342;9.662;2023-04-25T14:22:08;2.60;;;1.20;;
11646;SDS011;5880;52.342;9.662;2023-04-25T14:24:34;2.87;;;1.07;;
11646;SDS011;5880;52.342;9.662;2023-04-25T14:27:00;2.30;;;0.90;;
11646;SDS011;5880;52.342;9.662;2023-04-25T14:29:26;1.93;;;1.00;;
11646;SDS011;5880;52.342;9.662;2023-04-25T14:31:51;2.37;;;1.10;;
11646;SDS011;5880;52.342;9.662;2023-04-25T14:34:18;2.00;;;1.00;;
11646;SDS011;5880;52.342;9.662;2023-04-25T14:36:44;1.80;;;0.97;;
11646;SDS011;5880;52.342;9.662;2023-04-25T14:39:09;2.17;;;1.00;;
11646;SDS011;5880;52.342;9.662;2023-04-25T14:41:35;2.83;;;1.10;;
11646;SDS011;5880;52.342;9.662;2023-04-25T14:44:01;1.67;;;1.10;;
11646;SDS011;5880;52.342;9.662;2023-04-25T14:46:26;2.03;;;1.13;;
11646;SDS011;5880;52.342;9.662;2023-04-25T14:48:52;1.87;;;0.80;;
11646;SDS011;5880;52.342;9.662;2023-04-25T14:51:18;2.63;;;1.20;;
11646;SDS011;5880;52.342;9.662;2023-04-25T14:53:43;3.30;;;1.40;;
11646;SDS011;5880;52.342;9.662;2023-04-25T14:56:09;2.23;;;1.20;;
11646;SDS011;5880;52.342;9.662;2023-04-25T14:58:35;3.67;;;1.17;;
11646;SDS011;5880;52.342;9.662;2023-04-25T15:01:00;3.17;;;1.20;;
11646;SDS011;5880;52.342;9.662;2023-04-25T15:03:26;2.13;;;1.40;;
11646;SDS011;5880;52.342;9.662;2023-04-25T15:05:53;2.23;;;1.20;;
11646;SDS011;5880;52.342;9.662;2023-04-25T15:08:20;2.20;;;1.07;;
11646;SDS011;5880;52.342;9.662;2023-04-25T15:10:46;1.57;;;1.10;;
11646;SDS011;5880;52.342;9.662;2023-04-25T15:13:12;3.13;;;1.30;;
11646;SDS011;5880;52.342;9.662;2023-04-25T15:15:37;3.27;;;1.07;;